ADDS TAF Board (Experimental) INFO

IDs: Format: Expanded Condensed

Updated at: 1142 UTC 23 Oct 2014

KSFO - San Francisco Intl, CA, US

Issued at 1122 UTC 23 Oct 2014
Time1118Z23/12Z23/13Z23/14Z23/15Z23/16Z23/17Z23/18Z23/19Z23/20Z23/21Z23/22Z23/23Z24/00Z
TypeOBSPRVLPRVLPRVLPRVLPRVLPRVLPRVLPRVLPRVLPRVLPRVLPRVLPRVL
VIS10>6>6>6>6>6>6>6>6>6>6>6>6>6
CIG150202020202020150150150150150150150
CoverBKNBKNBKNBKNBKNBKNBKNBKNBKNBKNBKNBKNBKNBKN
FltCat--MVFRMVFRMVFRMVFRMVFRMVFRVFRVFRVFRVFRVFRVFRVFR
WX----------------------------
WDir300260260260260260260290290270270270270270
WSpd3333333661212121212
WGst----------------------------
R01/19
XWnd3222222661111111111
HWnd0-2-2-2-2-2-2-1-1-5-5-5-5-5
R10/28
XWnd0-2-2-2-2-2-2-1-1-5-5-5-5-5
HWnd-3-2-2-2-2-2-2-6-6-11-11-11-11-11
Raw TAF
KSFO 231122Z 2312/2418 26003KT P6SM BKN020
  FM231800 29006KT P6SM SCT025 BKN150
  FM232000 27012KT P6SM BKN150
  FM240500 31005KT P6SM SCT020 BKN150
  FM240700 VRB03KT P6SM OVC015
  FM241400 12005KT P6SM OVC015


Raw METAR
KSFO 231118Z 30003KT 10SM SCT010 BKN150 18/16 A3003 RMK AO2 $
KSFO 231056Z 28005KT 10SM BKN010 BKN150 18/15 A3003 RMK AO2 SLP170 T01780150 $

TAF Board Legend

Hazard VFR MVFR IFR LIFR
Visibility (sm) >5 3≤X≤5 1≤X<3 <1
Ceiling (100 ft) >30 10≤X≤30 5≤X<10 <5
Wind Speed (kt) <10 10≤X<20 20≤X<30 ≥30
Wind Gust (kt) <15 15≤X<25 25≤X<35 ≥35
Weather No Wx Reported VCTS,-TS,-FZRA TS,FZRA +TS,+FZRA


Page loaded:  11:42 UTC  |   04:42 AM Pacific  |   05:42 AM Mountain  |   06:42 AM Central  |   07:42 AM Eastern

 

ADVISORIES

FORECASTS

FORECASTS

OBSERVATIONS

USER TOOLS

ABOUT US